Time;durP1;ratioP1;P1;durP2;ratioP2;P2;SDS_P1;SDS_P2;PMS_P1;PMS_P2;Temp;Humidity;BMP_temperature;BMP_pressure;BME280_temperature;BME280_humidity;BME280_pressure;Samples;Min_cycle;Max_cycle;Signal;HPM_P1;HPM_P2
2023/03/22 00:02:16;;;;;;;5.10;1.40;;;23.20;68.50;;;;;;4991721;28;20543;-66
2023/03/22 00:04:44;;;;;;;6.90;1.60;;;23.10;68.40;;;;;;4992043;28;20189;-66
2023/03/22 00:07:11;;;;;;;4.93;1.60;;;23.10;68.40;;;;;;5001615;28;20208;-66
2023/03/22 00:09:39;;;;;;;6.67;1.50;;;23.10;68.60;;;;;;5002189;28;20585;-65
2023/03/22 00:12:06;;;;;;;3.10;1.17;;;23.10;69.10;;;;;;4998632;28;20191;-67
2023/03/22 00:14:34;;;;;;;7.70;1.53;;;22.90;69.00;;;;;;4987283;28;20285;-65
2023/03/22 00:17:02;;;;;;;4.70;1.30;;;22.90;69.40;;;;;;4993270;28;20348;-67
2023/03/22 00:19:32;;;;;;;6.37;1.50;;;23.00;69.50;;;;;;4979131;28;20177;-64
2023/03/22 00:22:00;;;;;;;5.90;1.33;;;23.00;69.50;;;;;;5003104;28;20215;-65
2023/03/22 00:24:27;;;;;;;5.73;1.30;;;22.90;69.40;;;;;;5004691;28;20178;-66
2023/03/22 00:26:55;;;;;;;7.00;1.40;;;23.00;69.30;;;;;;4993820;28;20176;-66
2023/03/22 00:29:23;;;;;;;7.37;1.30;;;23.00;69.10;;;;;;5007158;28;20186;-66
2023/03/22 00:31:53;;;;;;;4.80;1.20;;;23.10;68.90;;;;;;4991494;28;20645;-67
2023/03/22 00:34:20;;;;;;;3.77;1.30;;;23.20;68.30;;;;;;4992684;28;20648;-66
2023/03/22 00:36:48;;;;;;;5.03;1.37;;;23.30;68.00;;;;;;4994573;28;20248;-66
2023/03/22 00:39:15;;;;;;;6.97;1.50;;;23.30;68.30;;;;;;4986290;28;20225;-67
2023/03/22 00:41:42;;;;;;;6.50;1.63;;;23.30;68.10;;;;;;4994337;28;20174;-68
2023/03/22 00:44:10;;;;;;;10.10;1.47;;;23.40;67.80;;;;;;4990214;28;20245;-71
2023/03/22 00:46:37;;;;;;;3.80;1.27;;;23.40;67.50;;;;;;4994755;28;20193;-69
2023/03/22 00:49:05;;;;;;;7.47;1.83;;;23.50;67.40;;;;;;5000515;28;20287;-72
2023/03/22 00:51:32;;;;;;;5.43;1.63;;;23.50;68.10;;;;;;5008443;28;20181;-65
2023/03/22 00:53:59;;;;;;;5.47;1.40;;;23.60;68.10;;;;;;5002337;28;20277;-66
2023/03/22 00:56:27;;;;;;;4.90;1.20;;;23.40;68.00;;;;;;4997749;28;20188;-66
2023/03/22 00:58:55;;;;;;;7.10;1.30;;;23.50;67.10;;;;;;4990869;28;20182;-66
2023/03/22 01:01:22;;;;;;;8.10;1.43;;;23.50;67.70;;;;;;5004070;28;20264;-67
2023/03/22 01:03:50;;;;;;;6.83;1.60;;;23.50;67.40;;;;;;5005528;28;20648;-70
2023/03/22 01:06:17;;;;;;;7.57;2.10;;;23.50;68.20;;;;;;5014921;28;20227;-69
2023/03/22 01:08:45;;;;;;;8.27;1.87;;;23.50;67.70;;;;;;5005021;28;20213;-69
2023/03/22 01:11:13;;;;;;;7.10;1.60;;;23.60;67.70;;;;;;4996665;28;20177;-71
2023/03/22 01:13:42;;;;;;;4.47;1.60;;;23.50;67.70;;;;;;4994047;28;20226;-71
2023/03/22 01:16:10;;;;;;;8.10;1.63;;;23.50;68.40;;;;;;4988725;28;20182;-68
2023/03/22 01:18:37;;;;;;;11.60;2.10;;;23.60;68.30;;;;;;4997559;28;20269;-67
2023/03/22 01:21:05;;;;;;;6.50;2.03;;;23.50;69.60;;;;;;4984605;28;20214;-67
2023/03/22 01:23:32;;;;;;;9.10;1.63;;;23.40;69.80;;;;;;4990678;28;20604;-68
2023/03/22 01:26:00;;;;;;;4.43;1.30;;;23.30;69.80;;;;;;4996948;28;20205;-67
2023/03/22 01:28:29;;;;;;;7.83;1.50;;;23.30;69.60;;;;;;4997376;28;20618;-70
2023/03/22 01:31:00;;;;;;;8.83;1.80;;;23.30;70.20;;;;;;5010848;28;20192;-66
2023/03/22 01:33:27;;;;;;;7.23;1.83;;;23.20;69.90;;;;;;5003155;28;20174;-67
2023/03/22 01:35:54;;;;;;;11.57;2.40;;;23.30;70.20;;;;;;5007033;28;20177;-66
2023/03/22 01:38:22;;;;;;;9.00;2.20;;;23.30;69.70;;;;;;5005003;28;20186;-71
2023/03/22 01:40:49;;;;;;;9.20;1.93;;;23.50;69.80;;;;;;5011207;28;20666;-69
2023/03/22 01:43:17;;;;;;;11.10;1.70;;;23.50;69.40;;;;;;5015361;28;20184;-69
2023/03/22 01:45:49;;;;;;;9.90;1.97;;;23.50;69.50;;;;;;4990749;28;20638;-70
2023/03/22 01:48:33;;;;;;;9.07;2.20;;;23.50;69.40;;;;;;4979669;28;20217;-68
2023/03/22 01:51:11;;;;;;;12.97;1.97;;;23.50;69.60;;;;;;4994241;28;20244;-65
2023/03/22 01:54:03;;;;;;;10.10;1.97;;;23.60;70.70;;;;;;5004265;28;20648;-68
2023/03/22 01:56:34;;;;;;;11.27;1.97;;;23.70;71.40;;;;;;5009821;28;20580;-70
2023/03/22 01:59:02;;;;;;;5.40;1.50;;;23.70;71.70;;;;;;5007135;28;20526;-71
2023/03/22 02:01:30;;;;;;;13.10;1.90;;;23.80;72.70;;;;;;4983996;28;20174;-71
2023/03/22 02:04:16;;;;;;;8.27;1.80;;;23.70;73.10;;;;;;5006814;28;20189;-70
2023/03/22 02:06:45;;;;;;;7.23;1.50;;;23.70;73.70;;;;;;5010630;28;20181;-73
2023/03/22 02:09:16;;;;;;;5.63;1.67;;;23.70;73.10;;;;;;4990004;28;20280;-70
2023/03/22 02:11:56;;;;;;;10.13;2.20;;;23.50;72.30;;;;;;4993767;28;20182;-71
2023/03/22 02:14:57;;;;;;;8.73;1.87;;;23.50;73.60;;;;;;4995102;28;20225;-68
2023/03/22 02:17:27;;;;;;;8.83;2.10;;;23.50;73.90;;;;;;4993344;28;20256;-66
2023/03/22 02:20:37;;;;;;;14.60;1.73;;;23.40;73.50;;;;;;4993993;28;20206;-68
2023/03/22 02:23:21;;;;;;;6.20;1.80;;;23.30;72.60;;;;;;4972530;28;20575;-70
2023/03/22 02:25:55;;;;;;;8.27;1.70;;;23.30;72.60;;;;;;4994939;28;20204;-70
2023/03/22 02:28:42;;;;;;;9.20;1.80;;;23.20;72.50;;;;;;4994078;28;20289;-69
2023/03/22 02:31:52;;;;;;;7.30;1.47;;;23.20;72.20;;;;;;4977075;28;20213;-66
2023/03/22 02:35:09;;;;;;;7.43;1.87;;;23.30;72.10;;;;;;4994293;28;20620;-70
2023/03/22 02:37:52;;;;;;;9.33;2.13;;;23.30;72.60;;;;;;4971779;28;20316;-70
2023/03/22 02:40:35;;;;;;;8.90;2.10;;;23.30;72.00;;;;;;4993288;28;20185;-67
2023/03/22 02:43:22;;;;;;;9.83;1.87;;;23.30;72.40;;;;;;4994115;28;20235;-67
2023/03/22 02:46:11;;;;;;;6.53;2.00;;;23.20;70.90;;;;;;4989009;28;20231;-68
2023/03/22 02:48:47;;;;;;;7.50;1.50;;;23.30;71.40;;;;;;4991917;28;20300;-68
2023/03/22 02:51:47;;;;;;;9.77;2.10;;;23.50;70.80;;;;;;4993998;28;20185;-69
2023/03/22 02:54:37;;;;;;;10.60;2.37;;;23.80;69.90;;;;;;4991545;28;20640;-69
2023/03/22 02:57:11;;;;;;;12.17;2.37;;;24.00;69.40;;;;;;4986234;28;20240;-69
2023/03/22 02:59:41;;;;;;;9.60;2.10;;;24.40;68.90;;;;;;4993408;28;20185;-68
2023/03/22 03:02:11;;;;;;;9.37;2.40;;;24.60;67.10;;;;;;4993894;28;20186;-68
2023/03/22 03:04:44;;;;;;;6.90;2.30;;;24.80;66.20;;;;;;4993442;28;20188;-73
2023/03/22 03:07:15;;;;;;;13.43;1.97;;;24.80;66.20;;;;;;4993027;28;20293;-71
2023/03/22 03:09:43;;;;;;;11.17;2.40;;;24.90;66.10;;;;;;4991775;28;20189;-71
2023/03/22 03:12:18;;;;;;;8.43;2.53;;;24.90;66.40;;;;;;4993800;28;20602;-71
2023/03/22 03:14:45;;;;;;;11.77;2.30;;;24.70;66.80;;;;;;4992912;28;20235;-70
2023/03/22 03:17:28;;;;;;;11.73;2.80;;;24.80;66.30;;;;;;4993569;28;20263;-72
2023/03/22 03:20:29;;;;;;;12.87;2.50;;;24.90;66.20;;;;;;4992882;28;20182;-70
2023/03/22 03:23:20;;;;;;;8.17;2.23;;;24.80;66.30;;;;;;4982822;28;20192;-71
2023/03/22 03:26:05;;;;;;;10.93;2.37;;;24.90;66.30;;;;;;4979618;28;20531;-72
2023/03/22 03:28:59;;;;;;;17.47;2.33;;;24.70;66.50;;;;;;4992523;28;20590;-71
2023/03/22 03:31:43;;;;;;;12.10;2.10;;;24.60;66.90;;;;;;4991880;28;20656;-70
2023/03/22 03:34:22;;;;;;;9.70;2.43;;;24.40;67.80;;;;;;4991096;28;20188;-71
2023/03/22 03:37:09;;;;;;;10.93;2.53;;;24.40;68.00;;;;;;4992288;28;20177;-71
2023/03/22 03:40:03;;;;;;;11.80;2.80;;;24.40;68.20;;;;;;4989935;28;20547;-71
2023/03/22 03:42:31;;;;;;;12.40;2.20;;;24.40;68.50;;;;;;4985569;28;20212;-68
2023/03/22 03:45:00;;;;;;;15.93;3.27;;;24.30;69.10;;;;;;5012484;28;20235;-71
2023/03/22 03:47:29;;;;;;;11.07;2.50;;;24.30;69.50;;;;;;5012561;28;20201;-69
2023/03/22 03:49:57;;;;;;;7.40;1.77;;;24.30;69.10;;;;;;5012937;28;20169;-71
2023/03/22 03:52:25;;;;;;;16.43;2.33;;;24.30;69.20;;;;;;5012614;28;20275;-71
2023/03/22 03:54:53;;;;;;;10.70;2.30;;;24.30;69.20;;;;;;5012654;28;20581;-69
2023/03/22 03:57:21;;;;;;;15.17;2.70;;;24.30;69.50;;;;;;4997382;28;20187;-67
2023/03/22 03:59:49;;;;;;;14.03;2.73;;;24.30;69.50;;;;;;4990433;28;20189;-67
2023/03/22 04:02:16;;;;;;;7.67;2.07;;;24.30;69.30;;;;;;4989279;28;20630;-70
2023/03/22 04:04:43;;;;;;;9.70;2.40;;;24.30;69.70;;;;;;4981013;28;20268;-70
2023/03/22 04:07:11;;;;;;;15.40;2.10;;;24.30;69.40;;;;;;4987380;28;20644;-69
2023/03/22 04:09:39;;;;;;;9.40;2.40;;;24.30;69.30;;;;;;4982790;28;20194;-71
2023/03/22 04:12:08;;;;;;;9.87;2.17;;;24.40;68.70;;;;;;4991778;28;20260;-70
2023/03/22 04:14:35;;;;;;;21.30;2.93;;;24.60;68.80;;;;;;4988933;28;20329;-70
2023/03/22 04:17:03;;;;;;;17.60;2.60;;;24.70;68.30;;;;;;4992968;28;20186;-69
2023/03/22 04:19:31;;;;;;;15.80;2.77;;;24.80;67.80;;;;;;4990062;28;20549;-70
2023/03/22 04:21:59;;;;;;;11.63;2.37;;;24.80;67.80;;;;;;4981223;28;20318;-70
2023/03/22 04:24:26;;;;;;;10.10;2.23;;;24.90;67.50;;;;;;4988238;28;20193;-70
2023/03/22 04:26:54;;;;;;;8.27;2.30;;;25.20;67.00;;;;;;4985070;28;20276;-70
2023/03/22 04:29:21;;;;;;;9.70;2.23;;;25.30;67.10;;;;;;4991476;28;20549;-71
2023/03/22 04:31:49;;;;;;;10.93;2.50;;;25.50;66.60;;;;;;4989913;28;20189;-71
2023/03/22 04:34:16;;;;;;;15.00;2.60;;;25.30;66.80;;;;;;4987113;28;20203;-71
2023/03/22 04:36:44;;;;;;;10.70;2.27;;;25.20;67.30;;;;;;4990565;28;20186;-72
2023/03/22 04:39:11;;;;;;;10.87;2.60;;;25.10;67.70;;;;;;4995099;28;20186;-71
2023/03/22 04:41:39;;;;;;;8.57;2.23;;;25.00;68.30;;;;;;4993902;28;20277;-72
2023/03/22 04:44:07;;;;;;;11.70;2.13;;;25.10;67.70;;;;;;4987900;28;20679;-69
2023/03/22 04:46:36;;;;;;;15.83;2.30;;;25.10;68.60;;;;;;4996013;28;20197;-71
2023/03/22 04:49:05;;;;;;;11.77;2.27;;;25.00;67.90;;;;;;4996378;28;20217;-72
2023/03/22 04:51:32;;;;;;;11.23;2.23;;;25.00;68.40;;;;;;4995283;28;20186;-70
2023/03/22 04:53:59;;;;;;;11.33;2.30;;;25.10;68.50;;;;;;4992368;28;20189;-71
2023/03/22 04:56:27;;;;;;;8.53;2.40;;;24.80;68.30;;;;;;4996070;28;20269;-71
2023/03/22 04:58:54;;;;;;;9.57;2.73;;;24.60;69.10;;;;;;4991494;28;20197;-71
2023/03/22 05:01:21;;;;;;;9.47;2.27;;;24.60;69.40;;;;;;4999390;28;20300;-69
2023/03/22 05:03:49;;;;;;;15.60;2.80;;;24.50;69.70;;;;;;4989860;28;20189;-71
2023/03/22 05:06:16;;;;;;;12.93;2.33;;;24.50;69.60;;;;;;4998954;28;20615;-70
2023/03/22 05:08:44;;;;;;;10.47;2.50;;;24.40;70.20;;;;;;4992346;28;20377;-67
2023/03/22 05:11:18;;;;;;;11.23;2.30;;;24.30;70.40;;;;;;4991005;28;20186;-71
2023/03/22 05:13:45;;;;;;;11.67;2.57;;;24.20;71.20;;;;;;4991702;28;20221;-70
2023/03/22 05:16:12;;;;;;;9.30;2.33;;;24.30;70.80;;;;;;4992429;28;20181;-67
2023/03/22 05:18:41;;;;;;;8.73;2.30;;;24.30;71.20;;;;;;4989025;28;20178;-70
2023/03/22 05:21:14;;;;;;;12.40;3.00;;;24.40;70.80;;;;;;4986741;28;20187;-71
2023/03/22 05:23:42;;;;;;;10.23;2.00;;;24.40;70.60;;;;;;4991693;28;20190;-68
2023/03/22 05:26:14;;;;;;;16.97;2.17;;;24.50;70.80;;;;;;4993801;28;20190;-70
2023/03/22 05:28:43;;;;;;;13.77;3.00;;;24.40;70.70;;;;;;4993342;28;20304;-70
2023/03/22 05:31:13;;;;;;;10.93;2.27;;;24.40;70.80;;;;;;4987781;28;20192;-70
2023/03/22 05:33:41;;;;;;;14.97;2.87;;;24.30;71.10;;;;;;4988957;28;20556;-67
2023/03/22 05:36:10;;;;;;;9.63;2.20;;;24.30;71.20;;;;;;4990560;28;20190;-68
2023/03/22 05:38:38;;;;;;;9.00;2.20;;;24.30;71.50;;;;;;4991033;28;20193;-68
2023/03/22 05:41:05;;;;;;;11.53;2.30;;;24.20;71.50;;;;;;4993962;28;20185;-72
2023/03/22 05:43:33;;;;;;;11.57;2.30;;;24.10;71.80;;;;;;4990331;28;20272;-70
2023/03/22 05:46:00;;;;;;;18.60;3.03;;;24.00;72.20;;;;;;4991939;28;20268;-71
2023/03/22 05:48:27;;;;;;;14.43;2.57;;;24.00;72.20;;;;;;5005065;28;20233;-71
2023/03/22 05:50:54;;;;;;;13.43;2.50;;;24.00;72.50;;;;;;4992682;28;20524;-67
2023/03/22 05:53:22;;;;;;;18.83;3.10;;;23.90;72.60;;;;;;4999584;28;20180;-70
2023/03/22 05:55:49;;;;;;;13.73;2.63;;;23.80;72.80;;;;;;5006837;28;20186;-71
2023/03/22 05:58:17;;;;;;;17.03;2.97;;;23.80;72.90;;;;;;4990705;28;20666;-69
2023/03/22 06:00:50;;;;;;;9.50;2.10;;;23.80;73.20;;;;;;4995852;28;20193;-70
2023/03/22 06:03:17;;;;;;;11.97;2.67;;;23.80;73.20;;;;;;4998457;28;20232;-67
2023/03/22 06:05:45;;;;;;;10.07;2.57;;;23.80;73.50;;;;;;5005385;28;20263;-67
2023/03/22 06:08:12;;;;;;;12.00;2.83;;;23.80;73.40;;;;;;5002515;28;20225;-67
2023/03/22 06:10:40;;;;;;;11.97;2.40;;;23.80;73.90;;;;;;4994332;28;20250;-67
2023/03/22 06:13:07;;;;;;;14.87;3.10;;;23.80;74.10;;;;;;4994869;28;20229;-66
2023/03/22 06:15:34;;;;;;;20.27;3.10;;;23.80;75.00;;;;;;4993623;28;20186;-69
2023/03/22 06:18:02;;;;;;;10.10;2.47;;;23.70;75.20;;;;;;4994558;28;20178;-68
2023/03/22 06:20:29;;;;;;;10.07;2.67;;;23.70;75.30;;;;;;4994349;28;20663;-70
2023/03/22 06:22:56;;;;;;;15.37;3.17;;;23.70;75.40;;;;;;4994331;28;20189;-68
2023/03/22 06:25:24;;;;;;;12.20;2.47;;;23.80;75.30;;;;;;4994975;28;20197;-69
2023/03/22 06:27:51;;;;;;;13.43;2.60;;;23.80;74.90;;;;;;4994304;28;20661;-69
2023/03/22 06:30:19;;;;;;;14.90;2.67;;;23.80;74.50;;;;;;4988622;28;20185;-70
2023/03/22 06:32:46;;;;;;;11.67;2.87;;;23.80;74.40;;;;;;5014241;28;20185;-68
2023/03/22 06:35:14;;;;;;;12.83;2.77;;;23.80;74.30;;;;;;4996679;28;20613;-70
2023/03/22 06:37:41;;;;;;;15.60;3.10;;;23.80;74.10;;;;;;4994509;28;20236;-71
2023/03/22 06:40:09;;;;;;;16.43;2.83;;;23.80;74.30;;;;;;4990619;28;20762;-69
2023/03/22 06:42:37;;;;;;;12.67;2.30;;;23.80;74.50;;;;;;4990689;28;20652;-70
2023/03/22 06:45:05;;;;;;;12.67;2.57;;;23.80;74.20;;;;;;4990883;28;20182;-71
2023/03/22 06:47:32;;;;;;;16.90;3.30;;;23.80;74.50;;;;;;4987677;28;20221;-70
2023/03/22 06:49:59;;;;;;;12.03;2.80;;;23.70;74.30;;;;;;4988714;28;20203;-68
2023/03/22 06:52:27;;;;;;;11.60;2.70;;;23.70;74.50;;;;;;4984938;28;20186;-67
2023/03/22 06:54:55;;;;;;;14.17;3.17;;;23.60;74.80;;;;;;4997187;28;20621;-71
2023/03/22 06:57:23;;;;;;;14.47;2.70;;;23.60;75.10;;;;;;4994130;28;20185;-69
2023/03/22 06:59:50;;;;;;;8.67;2.63;;;23.60;75.50;;;;;;4988694;28;20194;-72
2023/03/22 07:02:17;;;;;;;10.90;2.37;;;23.50;75.60;;;;;;4986324;28;20194;-69
2023/03/22 07:04:45;;;;;;;14.53;3.03;;;23.50;75.80;;;;;;4985824;28;20174;-68
2023/03/22 07:07:13;;;;;;;10.00;2.67;;;23.40;75.90;;;;;;4985512;28;20236;-71
2023/03/22 07:09:40;;;;;;;16.30;2.93;;;23.50;76.20;;;;;;4991422;28;20237;-69
2023/03/22 07:12:08;;;;;;;11.93;2.43;;;23.40;77.00;;;;;;4996205;28;20182;-70
2023/03/22 07:14:36;;;;;;;10.87;2.60;;;23.50;77.40;;;;;;4993385;28;20229;-71
2023/03/22 07:17:03;;;;;;;15.73;3.30;;;23.50;78.10;;;;;;4993092;28;20186;-67
2023/03/22 07:19:31;;;;;;;16.50;3.40;;;23.40;78.60;;;;;;4991371;28;20182;-68
2023/03/22 07:21:58;;;;;;;15.70;3.20;;;23.30;79.20;;;;;;5008476;28;20656;-69
2023/03/22 07:24:26;;;;;;;16.27;2.60;;;23.20;79.50;;;;;;4998694;28;20244;-67
2023/03/22 07:26:53;;;;;;;13.57;2.37;;;23.10;80.00;;;;;;4984677;28;20186;-68
2023/03/22 07:29:20;;;;;;;14.53;3.43;;;23.00;80.70;;;;;;4992668;28;20514;-70
2023/03/22 07:31:48;;;;;;;9.80;2.70;;;22.90;81.00;;;;;;4992192;28;20256;-72
2023/03/22 07:34:15;;;;;;;13.57;3.00;;;22.80;81.50;;;;;;5012442;28;20192;-72
2023/03/22 07:36:43;;;;;;;17.33;2.87;;;22.80;81.70;;;;;;5003918;28;20178;-68
2023/03/22 07:39:10;;;;;;;13.27;2.83;;;22.70;81.90;;;;;;4994755;28;20178;-67
2023/03/22 07:41:37;;;;;;;11.67;2.77;;;22.60;82.10;;;;;;5013351;28;20173;-70
2023/03/22 07:44:05;;;;;;;12.57;2.93;;;22.60;82.00;;;;;;5012896;28;20516;-72
2023/03/22 07:46:33;;;;;;;15.03;3.50;;;22.60;82.00;;;;;;4986931;28;20210;-70
2023/03/22 07:49:00;;;;;;;13.03;2.87;;;22.50;81.90;;;;;;5004334;28;20683;-70
2023/03/22 07:51:28;;;;;;;15.47;3.77;;;22.50;81.90;;;;;;4992403;28;20185;-70
2023/03/22 07:53:56;;;;;;;13.53;2.60;;;22.50;81.90;;;;;;5002405;28;20196;-71
2023/03/22 07:56:23;;;;;;;15.03;3.10;;;22.50;81.90;;;;;;5012469;28;20181;-70
2023/03/22 07:58:50;;;;;;;12.53;2.83;;;22.50;82.00;;;;;;5012970;28;20174;-66
2023/03/22 08:01:18;;;;;;;14.17;3.30;;;22.40;82.20;;;;;;4998408;28;20186;-67
2023/03/22 08:03:45;;;;;;;18.10;3.33;;;22.50;82.20;;;;;;5002546;28;20173;-69
2023/03/22 08:06:13;;;;;;;21.27;3.57;;;22.40;82.10;;;;;;4994689;28;20229;-68
2023/03/22 08:08:40;;;;;;;14.43;2.60;;;22.40;81.90;;;;;;5008489;28;20309;-70
2023/03/22 08:11:08;;;;;;;10.57;2.70;;;22.40;81.80;;;;;;5001964;28;20204;-68
2023/03/22 08:13:36;;;;;;;21.07;3.27;;;22.40;81.60;;;;;;4989064;28;20261;-69
2023/03/22 08:16:04;;;;;;;12.17;2.73;;;22.40;81.70;;;;;;4994067;28;20203;-69
2023/03/22 08:18:32;;;;;;;17.50;3.20;;;22.40;81.20;;;;;;4991305;28;20181;-69
2023/03/22 08:21:00;;;;;;;14.83;3.23;;;22.50;81.10;;;;;;4987300;28;20186;-72
2023/03/22 08:23:28;;;;;;;11.10;2.23;;;22.50;81.10;;;;;;4986663;28;20189;-72
2023/03/22 08:25:55;;;;;;;11.40;2.80;;;22.50;81.00;;;;;;4999650;28;20173;-71
2023/03/22 08:28:23;;;;;;;12.77;2.63;;;22.50;80.90;;;;;;4987753;28;20599;-71
2023/03/22 08:30:50;;;;;;;17.63;2.90;;;22.50;80.80;;;;;;4996039;28;20178;-70
2023/03/22 08:33:20;;;;;;;16.20;2.77;;;22.60;80.80;;;;;;5005978;28;20185;-71
2023/03/22 08:35:48;;;;;;;17.23;3.37;;;22.60;81.10;;;;;;4985018;28;20182;-71
2023/03/22 08:38:15;;;;;;;21.30;3.40;;;22.60;81.50;;;;;;4998490;28;20182;-71
2023/03/22 08:40:46;;;;;;;18.43;2.97;;;22.50;81.50;;;;;;5005203;28;20198;-69
2023/03/22 08:43:14;;;;;;;17.43;3.47;;;22.50;81.90;;;;;;4991874;28;20240;-72
2023/03/22 08:45:41;;;;;;;13.83;3.17;;;22.50;82.40;;;;;;4988956;28;20201;-69
2023/03/22 08:48:08;;;;;;;13.37;2.97;;;22.40;82.80;;;;;;4997553;28;20267;-70
2023/03/22 08:50:36;;;;;;;16.60;3.60;;;22.40;82.80;;;;;;5005147;28;20205;-73
2023/03/22 08:53:04;;;;;;;15.97;3.07;;;22.30;82.80;;;;;;4990297;28;20190;-73
2023/03/22 08:55:34;;;;;;;15.83;3.20;;;22.30;82.70;;;;;;4994769;28;20249;-68
2023/03/22 08:58:02;;;;;;;15.03;2.97;;;22.30;82.80;;;;;;4992563;28;20272;-70
2023/03/22 09:00:30;;;;;;;16.80;3.20;;;22.30;82.60;;;;;;4990442;28;20182;-72
2023/03/22 09:02:58;;;;;;;19.13;3.37;;;22.30;82.50;;;;;;4991363;28;20704;-72
2023/03/22 09:05:25;;;;;;;21.20;3.63;;;22.30;82.50;;;;;;4991545;28;20192;-71
2023/03/22 09:07:53;;;;;;;15.57;2.90;;;22.40;82.30;;;;;;4989511;28;20214;-69
2023/03/22 09:10:20;;;;;;;24.60;4.33;;;22.40;82.20;;;;;;4990906;28;20209;-70
2023/03/22 09:12:48;;;;;;;16.33;2.90;;;22.40;82.40;;;;;;4990929;28;20214;-72
2023/03/22 09:15:16;;;;;;;12.63;2.90;;;22.30;81.90;;;;;;4975218;28;20293;-71
2023/03/22 09:17:43;;;;;;;12.20;2.53;;;22.40;81.90;;;;;;4990809;28;20256;-72
2023/03/22 09:20:11;;;;;;;17.23;3.03;;;22.40;81.70;;;;;;4991511;28;20193;-72
2023/03/22 09:22:39;;;;;;;13.07;2.43;;;22.40;81.70;;;;;;4991860;28;20702;-70
2023/03/22 09:25:07;;;;;;;14.00;3.47;;;22.50;81.70;;;;;;4992797;28;20178;-72
2023/03/22 09:27:35;;;;;;;20.43;3.93;;;22.50;81.70;;;;;;4993274;28;20214;-71
2023/03/22 09:30:02;;;;;;;15.70;4.43;;;22.40;81.60;;;;;;4994273;28;20194;-71
2023/03/22 09:32:30;;;;;;;15.17;2.80;;;22.40;81.50;;;;;;4996227;28;20201;-72
2023/03/22 09:34:57;;;;;;;16.07;2.67;;;22.40;81.50;;;;;;4995412;28;20237;-73
2023/03/22 09:37:29;;;;;;;12.03;2.83;;;22.50;80.90;;;;;;4994180;28;20645;-72
2023/03/22 09:39:57;;;;;;;11.23;2.77;;;22.50;80.90;;;;;;4995408;28;20268;-72
2023/03/22 09:42:33;;;;;;;16.47;2.93;;;22.50;80.80;;;;;;4992246;28;20280;-72
2023/03/22 09:45:03;;;;;;;16.93;2.63;;;22.40;80.90;;;;;;4993416;28;20188;-71
2023/03/22 09:47:38;;;;;;;18.03;2.93;;;22.50;81.00;;;;;;4989638;28;20226;-72
2023/03/22 09:50:28;;;;;;;16.03;4.47;;;22.50;80.90;;;;;;4995343;28;20208;-72
2023/03/22 09:52:56;;;;;;;16.87;4.40;;;22.40;81.00;;;;;;4994381;28;20186;-72
2023/03/22 09:55:26;;;;;;;15.67;2.90;;;22.40;81.20;;;;;;4994719;28;20629;-72
2023/03/22 09:58:13;;;;;;;12.50;2.97;;;22.40;81.30;;;;;;4994145;28;20253;-71
2023/03/22 10:01:04;;;;;;;15.80;2.83;;;22.40;81.20;;;;;;4994262;28;20260;-71
2023/03/22 10:03:52;;;;;;;14.23;2.60;;;22.40;81.30;;;;;;4960158;28;20278;-72
2023/03/22 10:06:22;;;;;;;10.40;2.73;;;22.30;81.40;;;;;;4987620;28;20192;-71
2023/03/22 10:08:52;;;;;;;17.97;3.17;;;22.30;81.30;;;;;;4995078;28;20205;-72
2023/03/22 10:11:52;;;;;;;12.17;2.60;;;22.30;81.40;;;;;;4993054;28;20174;-71
2023/03/22 10:14:31;;;;;;;17.47;2.60;;;22.30;81.60;;;;;;4987823;28;20222;-72
2023/03/22 10:17:04;;;;;;;17.93;2.80;;;22.30;81.60;;;;;;4993407;28;20232;-72
2023/03/22 10:20:11;;;;;;;19.50;2.90;;;22.30;81.60;;;;;;4994802;28;20182;-72
2023/03/22 10:22:43;;;;;;;16.27;2.90;;;22.30;81.70;;;;;;4952079;28;20222;-73
2023/03/22 10:25:18;;;;;;;15.13;3.60;;;22.30;81.70;;;;;;4976849;28;20194;-72
2023/03/22 10:27:48;;;;;;;17.00;3.00;;;22.30;81.60;;;;;;4993009;28;20239;-71
2023/03/22 10:30:26;;;;;;;16.53;3.10;;;22.30;81.50;;;;;;4993365;28;20190;-71
2023/03/22 10:33:01;;;;;;;16.07;2.57;;;22.30;81.40;;;;;;4990582;28;20184;-72
2023/03/22 10:35:30;;;;;;;16.83;3.33;;;22.30;81.50;;;;;;4992614;28;20177;-72
2023/03/22 10:38:01;;;;;;;17.57;3.27;;;22.30;81.40;;;;;;4980905;28;20871;-71
2023/03/22 10:40:34;;;;;;;19.40;3.70;;;22.30;81.40;;;;;;4989000;28;20284;-69
2023/03/22 10:43:30;;;;;;;19.87;3.13;;;22.30;81.30;;;;;;4993683;28;20541;-68
2023/03/22 10:46:00;;;;;;;12.87;3.10;;;22.30;81.30;;;;;;4989007;28;20190;-71
2023/03/22 10:48:45;;;;;;;19.83;5.17;;;22.20;81.50;;;;;;4982090;28;20744;-68
2023/03/22 10:51:27;;;;;;;18.23;4.30;;;22.30;81.50;;;;;;4998940;28;20502;-68
2023/03/22 10:53:57;;;;;;;16.60;3.53;;;22.20;81.60;;;;;;4993870;28;20178;-68
2023/03/22 10:56:24;;;;;;;24.40;4.23;;;22.30;81.70;;;;;;4994550;28;20186;-71
2023/03/22 10:58:54;;;;;;;16.03;3.07;;;22.20;81.80;;;;;;4993574;28;20205;-68
2023/03/22 11:01:35;;;;;;;20.77;4.60;;;22.20;81.90;;;;;;4991282;28;20182;-68
2023/03/22 11:04:16;;;;;;;20.27;4.90;;;22.20;81.90;;;;;;4992050;28;20188;-71
2023/03/22 11:06:53;;;;;;;18.93;4.47;;;22.20;82.00;;;;;;4993064;28;20213;-69
2023/03/22 11:09:22;;;;;;;17.77;3.63;;;22.10;82.10;;;;;;4984099;28;20229;-69
2023/03/22 11:12:00;;;;;;;17.67;3.03;;;22.10;82.20;;;;;;4993015;28;20257;-69
2023/03/22 11:14:44;;;;;;;23.90;4.43;;;22.20;82.20;;;;;;4993374;28;20264;-70
2023/03/22 11:17:24;;;;;;;15.67;2.73;;;22.10;82.20;;;;;;4994145;28;20182;-67
2023/03/22 11:20:06;;;;;;;19.70;3.23;;;22.10;82.30;;;;;;4993689;28;20200;-69
2023/03/22 11:22:41;;;;;;;17.17;5.10;;;22.10;82.20;;;;;;4993098;28;20197;-70
2023/03/22 11:25:28;;;;;;;23.10;4.60;;;22.00;82.30;;;;;;4993206;28;20663;-68
2023/03/22 11:28:19;;;;;;;16.37;3.13;;;21.90;82.70;;;;;;4993896;28;20556;-68
2023/03/22 11:31:07;;;;;;;18.67;3.33;;;21.90;82.60;;;;;;4993548;28;20557;-70
2023/03/22 11:33:36;;;;;;;18.83;3.13;;;21.90;82.70;;;;;;4991629;28;20575;-69
2023/03/22 11:36:17;;;;;;;21.47;3.10;;;21.90;82.70;;;;;;4992130;28;20193;-72
2023/03/22 11:38:45;;;;;;;20.70;2.93;;;21.90;82.60;;;;;;4993536;28;20265;-71
2023/03/22 11:41:36;;;;;;;17.37;2.90;;;21.80;82.70;;;;;;4993402;28;20261;-71
2023/03/22 11:44:15;;;;;;;14.63;3.07;;;21.70;82.90;;;;;;4964018;28;20551;-68
2023/03/22 11:46:59;;;;;;;16.97;3.03;;;21.70;83.10;;;;;;4992788;28;20190;-69
2023/03/22 11:49:45;;;;;;;16.33;3.10;;;21.60;83.30;;;;;;4992365;28;20255;-67
2023/03/22 11:52:20;;;;;;;15.33;2.90;;;21.60;83.40;;;;;;4992692;28;20185;-68
2023/03/22 11:54:48;;;;;;;14.07;3.10;;;21.50;83.50;;;;;;4992168;28;20184;-68
2023/03/22 11:57:22;;;;;;;11.80;2.83;;;21.40;83.80;;;;;;4992606;28;20641;-67
2023/03/22 11:59:58;;;;;;;14.33;3.10;;;21.40;84.00;;;;;;4986143;28;20178;-69
2023/03/22 12:02:25;;;;;;;14.13;3.27;;;21.30;84.20;;;;;;4993324;28;20545;-68
2023/03/22 12:05:11;;;;;;;14.23;3.30;;;21.30;84.20;;;;;;4993227;28;20186;-68
2023/03/22 12:07:40;;;;;;;17.90;2.57;;;21.20;84.30;;;;;;4992875;28;20198;-67
2023/03/22 12:10:22;;;;;;;10.53;3.00;;;21.30;84.80;;;;;;4991810;28;20214;-68
2023/03/22 12:13:06;;;;;;;12.83;2.57;;;21.30;85.00;;;;;;4992990;28;20185;-67
2023/03/22 12:15:39;;;;;;;13.87;3.00;;;21.20;84.90;;;;;;4987062;28;20198;-68
2023/03/22 12:19:02;;;;;;;14.17;3.70;;;21.10;85.10;;;;;;4993088;28;20194;-68
2023/03/22 12:21:29;;;;;;;14.90;3.20;;;21.10;85.20;;;;;;4991494;28;20222;-67
2023/03/22 12:24:02;;;;;;;14.00;3.40;;;21.10;85.50;;;;;;4991611;28;20189;-69
2023/03/22 12:26:32;;;;;;;14.77;3.37;;;21.10;85.60;;;;;;4992491;28;20241;-68
2023/03/22 12:29:05;;;;;;;14.70;3.07;;;21.10;85.70;;;;;;5007558;28;20205;-68
2023/03/22 12:31:41;;;;;;;12.57;2.93;;;21.20;85.70;;;;;;5001797;28;20189;-68
2023/03/22 12:34:22;;;;;;;15.73;3.10;;;21.20;85.40;;;;;;4996923;28;20176;-69
2023/03/22 12:36:56;;;;;;;20.63;3.47;;;21.30;85.30;;;;;;5003864;28;20179;-68
2023/03/22 12:39:31;;;;;;;15.53;3.03;;;21.30;85.10;;;;;;4983473;28;20592;-67
2023/03/22 12:42:14;;;;;;;13.60;3.33;;;21.40;84.80;;;;;;4995435;28;20199;-69
2023/03/22 12:44:44;;;;;;;18.00;3.60;;;21.50;84.60;;;;;;4991462;28;20190;-68
2023/03/22 12:47:26;;;;;;;11.83;2.90;;;21.50;84.50;;;;;;4982448;28;20189;-68
2023/03/22 12:50:35;;;;;;;14.43;3.60;;;21.50;84.50;;;;;;4991884;28;20186;-68
2023/03/22 12:53:04;;;;;;;19.07;3.40;;;21.50;84.40;;;;;;4885049;29;20185;-68
2023/03/22 12:55:37;;;;;;;15.07;3.40;;;21.40;84.50;;;;;;4974047;28;20186;-67
2023/03/22 12:58:09;;;;;;;20.50;3.67;;;21.40;84.60;;;;;;4990941;28;20221;-67
2023/03/22 13:00:51;;;;;;;31.17;4.50;;;21.40;84.80;;;;;;4990913;28;20246;-67
2023/03/22 13:03:22;;;;;;;18.30;3.93;;;21.50;85.00;;;;;;4995037;28;20281;-67
2023/03/22 13:05:59;;;;;;;17.77;3.20;;;21.50;84.80;;;;;;4994167;28;20198;-68
2023/03/22 13:08:46;;;;;;;16.70;3.63;;;21.50;84.90;;;;;;4994556;28;20552;-68